Fostoria, Ohio
Current Conditions -  °F | °C
As of 10:53 AM on Thursday 27 Nov 2014 (Local Time) from KFDY Reporting Station
Broken Clouds Broken Clouds  
Wind Chill: 25°   Ceiling: 4400
Heat Index: 34°   Visibility: 10mi
Dew Point: 20°   Wind: 13mph
Humidity: 56%   Direction: 320°NW
Pressure: 30.2"   Gusts: NA
Location:  41.16°N, 83.41°W
Report Text: KFDY 271553Z AUTO 32011KT 10SM BKN044 01/M07 A3020 RMK AO2 SLP229 T00111067
Loading
Personal Weather Stations






























Interactive Weather Map New forecast layout! Learn more

10-Day Weather Forecast

Advertisements
Track Severe Weather on mobile